createdAt,value
2024-02-04T00:00:50.540Z,8.57
2024-02-04T00:03:18.047Z,27.30
2024-02-04T00:05:45.283Z,16.48
2024-02-04T00:08:14.188Z,22.27
2024-02-04T00:10:41.421Z,10.07
2024-02-04T00:13:08.763Z,10.70
2024-02-04T00:15:36.141Z,9.90
2024-02-04T00:18:03.677Z,12.35
2024-02-04T00:20:33.939Z,8.93
2024-02-04T00:23:01.272Z,8.20
2024-02-04T00:25:30.436Z,8.50
2024-02-04T00:27:57.843Z,7.38
2024-02-04T00:30:25.318Z,13.60
2024-02-04T00:32:52.755Z,7.32
2024-02-04T00:35:20.114Z,7.43
2024-02-04T00:37:47.468Z,7.95
2024-02-04T00:40:14.864Z,7.15
2024-02-04T00:42:42.119Z,6.40
2024-02-04T00:45:09.713Z,7.07
2024-02-04T00:47:37.368Z,6.80
2024-02-04T00:50:05.150Z,6.85
2024-02-04T00:52:32.538Z,7.78
2024-02-04T00:55:00.070Z,11.00
2024-02-04T00:57:27.486Z,17.15
2024-02-04T00:59:54.845Z,12.68
2024-02-04T01:02:22.100Z,6.90
2024-02-04T01:04:51.770Z,6.97
2024-02-04T01:07:19.288Z,6.50
2024-02-04T01:09:46.677Z,5.68
2024-02-04T01:12:14.007Z,6.22
2024-02-04T01:14:41.362Z,7.55
2024-02-04T01:17:09.235Z,5.95
2024-02-04T01:19:36.841Z,6.22
2024-02-04T01:22:05.159Z,5.53
2024-02-04T01:24:32.919Z,5.82
2024-02-04T01:27:00.261Z,5.68
2024-02-04T01:29:27.487Z,5.85
2024-02-04T01:31:55.337Z,5.72
2024-02-04T01:34:22.629Z,6.20
2024-02-04T01:36:49.984Z,5.95
2024-02-04T01:39:17.699Z,7.07
2024-02-04T01:41:47.057Z,6.20
2024-02-04T01:44:14.474Z,5.47
2024-02-04T01:46:42.222Z,5.90
2024-02-04T01:49:10.102Z,6.28
2024-02-04T01:51:38.105Z,6.40
2024-02-04T01:54:07.214Z,6.25
2024-02-04T01:56:35.069Z,5.95
2024-02-04T01:59:02.459Z,5.57
2024-02-04T02:01:30.237Z,5.45
2024-02-04T02:03:57.888Z,4.40
2024-02-04T02:06:25.539Z,4.53
2024-02-04T02:08:56.106Z,4.90
2024-02-04T02:11:34.756Z,4.63
2024-02-04T02:14:10.283Z,4.80
2024-02-04T02:16:37.753Z,4.97
2024-02-04T02:19:19.912Z,4.97
2024-02-04T02:22:32.374Z,5.68
2024-02-04T02:25:01.107Z,4.70
2024-02-04T02:27:28.444Z,3.97
2024-02-04T02:29:55.904Z,4.57
2024-02-04T02:32:23.547Z,4.05
2024-02-04T02:34:51.209Z,3.50
2024-02-04T02:37:36.689Z,3.65
2024-02-04T02:40:39.228Z,4.15
2024-02-04T02:43:07.946Z,3.30
2024-02-04T02:45:36.275Z,3.35
2024-02-04T02:48:06.185Z,4.07
2024-02-04T02:50:34.640Z,3.75
2024-02-04T02:53:01.822Z,3.67
2024-02-04T02:55:29.142Z,3.33
2024-02-04T02:57:56.354Z,3.80
2024-02-04T03:00:23.991Z,3.92
2024-02-04T03:02:51.237Z,4.20
2024-02-04T03:05:19.685Z,10.77
2024-02-04T03:07:47.031Z,3.85
2024-02-04T03:10:14.692Z,4.95
2024-02-04T03:12:42.182Z,3.78
2024-02-04T03:15:09.720Z,3.25
2024-02-04T03:17:36.926Z,3.78
2024-02-04T03:20:04.957Z,3.70
2024-02-04T03:22:32.432Z,4.07
2024-02-04T03:25:00.193Z,4.15
2024-02-04T03:27:27.676Z,5.22
2024-02-04T03:29:55.102Z,4.18
2024-02-04T03:32:23.636Z,4.38
2024-02-04T03:34:51.329Z,4.25
2024-02-04T03:37:18.620Z,4.05
2024-02-04T03:39:46.122Z,4.72
2024-02-04T03:42:13.454Z,4.13
2024-02-04T03:44:41.233Z,4.20
2024-02-04T03:47:08.549Z,5.15
2024-02-04T03:49:35.974Z,5.30
2024-02-04T03:52:03.597Z,5.72
2024-02-04T03:54:30.961Z,5.15
2024-02-04T03:56:58.335Z,5.18
2024-02-04T03:59:25.691Z,5.53
2024-02-04T04:01:55.117Z,5.30
2024-02-04T04:04:22.827Z,4.80
2024-02-04T04:06:50.333Z,5.47
2024-02-04T04:09:17.859Z,5.60
2024-02-04T04:11:45.136Z,5.60
2024-02-04T04:14:12.497Z,6.25
2024-02-04T04:16:39.662Z,6.20
2024-02-04T04:19:07.071Z,5.57
2024-02-04T04:21:34.419Z,5.53
2024-02-04T04:24:01.671Z,5.72
2024-02-04T04:26:28.907Z,6.10
2024-02-04T04:28:56.249Z,6.40
2024-02-04T04:31:23.451Z,5.80
2024-02-04T04:33:50.863Z,5.30
2024-02-04T04:36:18.276Z,6.57
2024-02-04T04:38:45.594Z,5.50
2024-02-04T04:41:12.888Z,5.90
2024-02-04T04:43:40.253Z,7.00
2024-02-04T04:46:07.938Z,6.35
2024-02-04T04:48:35.516Z,5.75
2024-02-04T04:51:02.901Z,5.40
2024-02-04T04:53:30.160Z,6.30
2024-02-04T04:55:58.321Z,6.30
2024-02-04T04:58:25.505Z,6.05
2024-02-04T05:00:52.961Z,6.60
2024-02-04T05:03:20.256Z,5.93
2024-02-04T05:05:47.636Z,5.47
2024-02-04T05:08:16.774Z,7.57
2024-02-04T05:10:44.165Z,6.95
2024-02-04T05:13:11.388Z,6.43
2024-02-04T05:15:38.763Z,6.38
2024-02-04T05:18:06.252Z,6.18
2024-02-04T05:20:33.656Z,6.45
2024-02-04T05:23:00.896Z,6.53
2024-02-04T05:25:28.274Z,6.47
2024-02-04T05:27:55.582Z,6.40
2024-02-04T05:30:23.172Z,5.95
2024-02-04T05:32:50.660Z,6.05
2024-02-04T05:35:18.014Z,5.68
2024-02-04T05:37:45.319Z,6.35
2024-02-04T05:40:14.381Z,6.82
2024-02-04T05:42:42.289Z,5.32
2024-02-04T05:45:10.041Z,5.90
2024-02-04T05:47:38.074Z,5.13
2024-02-04T05:50:05.997Z,5.57
2024-02-04T05:52:34.276Z,5.32
2024-02-04T05:55:05.022Z,5.65
2024-02-04T05:57:33.067Z,5.60
2024-02-04T06:00:00.983Z,5.40
2024-02-04T06:02:28.511Z,5.70
2024-02-04T06:04:56.122Z,5.60
2024-02-04T06:07:23.661Z,5.70
2024-02-04T06:09:51.192Z,5.43
2024-02-04T06:12:18.484Z,5.70
2024-02-04T06:14:45.943Z,5.63
2024-02-04T06:17:13.341Z,5.40
2024-02-04T06:19:40.758Z,5.35
2024-02-04T06:22:08.211Z,4.93
2024-02-04T06:24:35.691Z,4.95
2024-02-04T06:27:03.058Z,5.70
2024-02-04T06:29:30.436Z,5.45
2024-02-04T06:31:57.867Z,5.88
2024-02-04T06:34:26.046Z,5.38
2024-02-04T06:36:53.508Z,5.72
2024-02-04T06:39:20.922Z,6.28
2024-02-04T06:41:48.083Z,6.13
2024-02-04T06:44:15.367Z,4.82
2024-02-04T06:46:42.653Z,4.40
2024-02-04T06:49:10.022Z,5.97
2024-02-04T06:51:37.329Z,6.55
2024-02-04T06:54:04.798Z,6.10
2024-02-04T06:56:32.100Z,7.10
2024-02-04T06:58:59.403Z,5.55
2024-02-04T07:01:26.822Z,5.68
2024-02-04T07:03:54.287Z,4.43
2024-02-04T07:06:21.638Z,4.60
2024-02-04T07:08:48.996Z,5.50
2024-02-04T07:11:17.164Z,5.00
2024-02-04T07:13:44.634Z,5.32
2024-02-04T07:16:11.968Z,6.03
2024-02-04T07:18:39.404Z,5.90
2024-02-04T07:21:07.953Z,7.60
2024-02-04T07:23:35.367Z,6.25
2024-02-04T07:26:02.557Z,6.97
2024-02-04T07:28:29.897Z,6.72
2024-02-04T07:30:57.237Z,6.40
2024-02-04T07:33:24.569Z,6.93
2024-02-04T07:35:51.925Z,6.30
2024-02-04T07:38:19.258Z,6.68
2024-02-04T07:40:46.642Z,6.57
2024-02-04T07:43:13.934Z,7.53
2024-02-04T07:45:41.330Z,7.90
2024-02-04T07:48:10.675Z,6.80
2024-02-04T07:50:38.300Z,6.30
2024-02-04T07:53:05.623Z,6.25
2024-02-04T07:55:32.869Z,6.70
2024-02-04T07:58:00.260Z,6.45
2024-02-04T08:00:27.706Z,6.82
2024-02-04T08:02:56.694Z,6.72
2024-02-04T08:05:24.158Z,6.80
2024-02-04T08:07:51.767Z,5.10
2024-02-04T08:10:19.279Z,6.18
2024-02-04T08:12:52.141Z,6.00
2024-02-04T08:15:19.596Z,6.00
2024-02-04T08:17:47.239Z,6.80
2024-02-04T08:20:14.709Z,7.05
2024-02-04T08:22:42.258Z,6.10
2024-02-04T08:25:11.787Z,6.93
2024-02-04T08:27:39.610Z,7.45
2024-02-04T08:30:07.790Z,8.27
2024-02-04T08:32:35.185Z,6.95
2024-02-04T08:35:03.151Z,8.25
2024-02-04T08:37:30.776Z,7.32
2024-02-04T08:40:01.348Z,6.20
2024-02-04T08:42:28.790Z,5.82
2024-02-04T08:44:56.001Z,5.47
2024-02-04T08:47:23.480Z,6.47
2024-02-04T08:49:50.874Z,5.43
2024-02-04T08:52:18.490Z,5.10
2024-02-04T08:54:45.884Z,7.82
2024-02-04T08:57:13.363Z,5.57
2024-02-04T08:59:40.562Z,6.10
2024-02-04T09:02:11.014Z,6.78
2024-02-04T09:04:42.347Z,5.57
2024-02-04T09:07:10.087Z,5.78
2024-02-04T09:09:38.584Z,6.10
2024-02-04T09:12:06.268Z,4.75
2024-02-04T09:14:33.747Z,4.00
2024-02-04T09:17:05.265Z,5.18
2024-02-04T09:19:32.736Z,4.47
2024-02-04T09:22:02.703Z,8.13
2024-02-04T09:24:31.316Z,6.85
2024-02-04T09:26:58.704Z,7.78
2024-02-04T09:29:26.084Z,15.40
2024-02-04T09:31:55.581Z,8.52
2024-02-04T09:34:23.307Z,33.03
2024-02-04T09:36:50.800Z,11.23
2024-02-04T09:39:18.389Z,13.70
2024-02-04T09:41:46.073Z,6.88
2024-02-04T09:44:15.941Z,8.55
2024-02-04T09:46:44.726Z,68.57
2024-02-04T09:49:14.256Z,37.13
2024-02-04T09:51:42.866Z,18.15
2024-02-04T09:54:12.758Z,68.38
2024-02-04T09:56:41.930Z,4.53
2024-02-04T09:59:09.349Z,17.80
2024-02-04T10:01:37.273Z,4.07
2024-02-04T10:04:06.434Z,8.45
2024-02-04T10:06:34.347Z,2.90
2024-02-04T10:09:02.438Z,2.60
2024-02-04T10:11:29.909Z,3.60
2024-02-04T10:13:57.352Z,1.95
2024-02-04T10:16:24.696Z,2.10
2024-02-04T10:18:52.296Z,7.45
2024-02-04T10:21:21.568Z,7.72
2024-02-04T10:23:49.544Z,12.85
2024-02-04T10:26:17.850Z,12.45
2024-02-04T10:28:49.447Z,5.72
2024-02-04T10:31:17.365Z,5.10
2024-02-04T10:33:46.484Z,1.55
2024-02-04T10:36:14.108Z,45.60
2024-02-04T10:38:41.552Z,27.00
2024-02-04T10:41:09.660Z,2.35
2024-02-04T10:43:37.943Z,4.55
2024-02-04T10:46:12.889Z,1.85
2024-02-04T10:48:45.956Z,5.47
2024-02-04T10:51:18.652Z,2.08
2024-02-04T10:53:49.810Z,3.03
2024-02-04T10:56:21.744Z,8.60
2024-02-04T10:58:50.555Z,22.77
2024-02-04T11:01:18.322Z,9.25
2024-02-04T11:03:48.071Z,4.75
2024-02-04T11:06:15.826Z,3.42
2024-02-04T11:08:44.925Z,28.83
2024-02-04T11:11:12.686Z,3.95
2024-02-04T11:13:43.508Z,13.68
2024-02-04T11:16:33.170Z,6.78
2024-02-04T11:19:23.606Z,14.73
2024-02-04T11:22:26.218Z,7.13
2024-02-04T11:25:14.917Z,3.85
2024-02-04T11:27:42.610Z,3.35
2024-02-04T11:30:11.342Z,4.80
2024-02-04T11:32:38.813Z,41.42
2024-02-04T11:35:09.248Z,53.45
2024-02-04T11:37:37.512Z,20.00
2024-02-04T11:40:08.545Z,12.88
2024-02-04T11:42:36.155Z,68.25
2024-02-04T11:45:15.037Z,69.80
2024-02-04T11:47:42.832Z,82.65
2024-02-04T11:50:12.049Z,126.90
2024-02-04T11:52:41.390Z,33.78
2024-02-04T11:55:15.452Z,17.92
2024-02-04T11:57:43.249Z,20.90
2024-02-04T12:00:12.561Z,49.83
2024-02-04T12:02:40.412Z,128.25
2024-02-04T12:05:08.551Z,22.00
2024-02-04T12:07:37.301Z,11.88
2024-02-04T12:10:07.591Z,128.85
2024-02-04T12:12:35.638Z,5.60
2024-02-04T12:15:05.538Z,31.83
2024-02-04T12:17:33.845Z,79.55
2024-02-04T12:20:01.553Z,41.90
2024-02-04T12:22:33.295Z,40.63
2024-02-04T12:25:01.415Z,126.40
2024-02-04T12:27:28.911Z,168.93
2024-02-04T12:29:56.791Z,40.85
2024-02-04T12:32:24.389Z,42.20
2024-02-04T12:34:55.704Z,13.32
2024-02-04T12:37:23.367Z,213.70
2024-02-04T12:39:50.653Z,22.10
2024-02-04T12:42:22.727Z,24.42
2024-02-04T12:44:50.046Z,9.00
2024-02-04T12:47:21.354Z,6.20
2024-02-04T12:52:16.382Z,82.93
2024-02-04T12:54:51.566Z,131.63
2024-02-04T12:57:25.734Z,23.85
2024-02-04T12:59:54.117Z,224.43
2024-02-04T13:02:22.746Z,103.15
2024-02-04T13:04:50.368Z,131.40
2024-02-04T13:07:21.258Z,179.00
2024-02-04T13:10:01.951Z,17.35
2024-02-04T13:12:29.768Z,9.23
2024-02-04T13:14:57.237Z,410.80
2024-02-04T13:17:25.044Z,159.10
2024-02-04T13:19:53.068Z,274.38
2024-02-04T13:22:20.521Z,17.75
2024-02-04T13:24:47.882Z,9.38
2024-02-04T13:27:18.924Z,15.35
2024-02-04T13:29:46.511Z,15.20
2024-02-04T13:32:13.887Z,5.82
2024-02-04T13:34:41.301Z,6.57
2024-02-04T13:37:14.002Z,122.88
2024-02-04T13:39:41.597Z,8.98
2024-02-04T13:42:08.929Z,10.82
2024-02-04T13:44:36.502Z,4.80
2024-02-04T13:47:03.964Z,5.10
2024-02-04T13:49:31.365Z,6.57
2024-02-04T13:51:58.768Z,9.48
2024-02-04T13:54:26.091Z,73.40
2024-02-04T13:56:53.458Z,20.83
2024-02-04T13:59:20.895Z,62.10
2024-02-04T14:01:48.310Z,43.33
2024-02-04T14:04:15.842Z,60.20
2024-02-04T14:06:43.288Z,189.90
2024-02-04T14:09:14.101Z,47.25
2024-02-04T14:11:41.621Z,222.10
2024-02-04T14:14:08.980Z,19.98
2024-02-04T14:16:36.455Z,14.30
2024-02-04T14:19:03.747Z,17.15
2024-02-04T14:21:33.473Z,13.52
2024-02-04T14:24:02.196Z,9.48
2024-02-04T14:26:29.534Z,11.25
2024-02-04T14:28:57.121Z,13.68
2024-02-04T14:31:24.547Z,86.00
2024-02-04T14:33:52.246Z,253.75
2024-02-04T14:36:20.488Z,15.32
2024-02-04T14:38:47.817Z,11.35
2024-02-04T14:41:15.123Z,30.17
2024-02-04T14:43:42.321Z,33.67
2024-02-04T14:46:09.909Z,13.48
2024-02-04T14:48:43.280Z,27.50
2024-02-04T14:51:12.318Z,16.67
2024-02-04T14:53:39.607Z,14.30
2024-02-04T14:56:07.168Z,17.13
2024-02-04T14:58:36.040Z,16.27
2024-02-04T15:01:04.234Z,62.90
2024-02-04T15:03:31.673Z,19.23
2024-02-04T15:05:59.161Z,41.33
2024-02-04T15:08:26.758Z,23.98
2024-02-04T15:10:54.335Z,16.48
2024-02-04T15:13:22.010Z,17.30
2024-02-04T15:15:49.648Z,8.35
2024-02-04T15:18:17.258Z,34.63
2024-02-04T15:20:45.060Z,13.50
2024-02-04T15:23:12.561Z,27.13
2024-02-04T15:25:40.215Z,17.40
2024-02-04T15:28:09.416Z,9.40
2024-02-04T15:30:37.158Z,7.75
2024-02-04T15:33:04.916Z,6.03
2024-02-04T15:35:32.642Z,9.65
2024-02-04T15:37:59.918Z,8.30
2024-02-04T15:40:27.158Z,13.93
2024-02-04T15:42:54.494Z,8.18
2024-02-04T15:45:21.737Z,9.85
2024-02-04T15:47:53.702Z,8.68
2024-02-04T15:50:24.609Z,8.02
2024-02-04T15:52:53.918Z,5.00
2024-02-04T15:55:21.631Z,24.98
2024-02-04T15:57:52.206Z,48.28
2024-02-04T16:00:26.911Z,15.57
2024-02-04T16:02:55.618Z,15.75
2024-02-04T16:05:23.579Z,44.35
2024-02-04T16:07:51.714Z,7.20
2024-02-04T16:10:21.621Z,11.40
2024-02-04T16:12:52.053Z,3.60
2024-02-04T16:15:22.894Z,5.57
2024-02-04T16:17:50.650Z,14.45
2024-02-04T16:20:20.027Z,89.68
2024-02-04T16:22:48.290Z,61.28
2024-02-04T16:25:18.157Z,6.63
2024-02-04T16:27:48.457Z,10.45
2024-02-04T16:30:20.353Z,4.93
2024-02-04T16:32:49.242Z,228.43
2024-02-04T16:35:17.173Z,396.02
2024-02-04T16:37:44.609Z,231.52
2024-02-04T16:40:13.904Z,75.30
2024-02-04T16:42:41.553Z,153.18
2024-02-04T16:45:09.533Z,40.55
2024-02-04T16:47:37.272Z,15.52
2024-02-04T16:50:05.723Z,31.15
2024-02-04T16:52:33.278Z,158.85
2024-02-04T16:55:00.788Z,265.60
2024-02-04T16:57:28.165Z,166.40
2024-02-04T16:59:57.502Z,618.80
2024-02-04T17:02:26.113Z,127.85
2024-02-04T17:04:54.012Z,52.58
2024-02-04T17:07:22.468Z,127.68
2024-02-04T17:09:54.554Z,999.90
2024-02-04T17:14:49.706Z,165.18
2024-02-04T17:17:21.567Z,642.53
2024-02-04T17:20:08.627Z,373.30
2024-02-04T17:22:37.603Z,309.27
2024-02-04T17:25:08.706Z,68.15
2024-02-04T17:27:41.245Z,311.25
2024-02-04T17:30:13.376Z,232.05
2024-02-04T17:32:42.394Z,410.17
2024-02-04T17:35:15.303Z,340.27
2024-02-04T17:37:45.239Z,408.48
2024-02-04T17:40:16.315Z,409.63
2024-02-04T17:42:43.882Z,287.10
2024-02-04T17:45:11.953Z,249.40
2024-02-04T17:47:40.028Z,581.45
2024-02-04T17:50:07.991Z,686.65
2024-02-04T17:52:36.156Z,203.50
2024-02-04T17:55:03.998Z,289.67
2024-02-04T17:57:33.588Z,167.68
2024-02-04T18:00:02.356Z,188.77
2024-02-04T18:05:02.736Z,608.08
2024-02-04T18:07:30.324Z,279.08
2024-02-04T18:09:57.908Z,195.63
2024-02-04T18:12:27.210Z,92.88
2024-02-04T18:14:54.842Z,135.50
2024-02-04T18:17:22.340Z,164.50
2024-02-04T18:19:49.825Z,217.98
2024-02-04T18:22:26.600Z,344.75
2024-02-04T18:24:55.421Z,209.40
2024-02-04T18:27:28.283Z,74.03
2024-02-04T18:29:56.291Z,69.97
2024-02-04T18:32:25.141Z,350.90
2024-02-04T18:34:57.232Z,276.58
2024-02-04T18:37:25.328Z,94.55
2024-02-04T18:39:55.827Z,124.05
2024-02-04T18:42:23.397Z,105.88
2024-02-04T18:44:50.830Z,138.40
2024-02-04T18:47:18.475Z,97.00
2024-02-04T18:49:47.122Z,65.75
2024-02-04T18:52:14.760Z,181.35
2024-02-04T18:54:42.856Z,63.63
2024-02-04T18:57:10.210Z,39.20
2024-02-04T18:59:37.999Z,32.00
2024-02-04T19:02:05.663Z,117.22
2024-02-04T19:04:33.296Z,116.30
2024-02-04T19:07:03.721Z,148.27
2024-02-04T19:09:33.099Z,271.70
2024-02-04T19:12:00.717Z,317.15
2024-02-04T19:14:28.731Z,181.30
2024-02-04T19:16:56.011Z,112.60
2024-02-04T19:19:23.587Z,160.82
2024-02-04T19:21:51.367Z,125.25
2024-02-04T19:24:19.855Z,151.73
2024-02-04T19:26:49.292Z,78.78
2024-02-04T19:29:18.296Z,231.60
2024-02-04T19:31:45.962Z,53.53
2024-02-04T19:34:14.946Z,45.67
2024-02-04T19:36:44.686Z,82.10
2024-02-04T19:39:14.620Z,60.53
2024-02-04T19:41:42.350Z,112.10
2024-02-04T19:44:10.347Z,129.15
2024-02-04T19:47:02.791Z,220.75
2024-02-04T19:52:38.790Z,283.30
2024-02-04T19:55:06.989Z,249.02
2024-02-04T19:57:35.806Z,182.25
2024-02-04T20:00:08.794Z,131.25
2024-02-04T20:02:39.686Z,38.38
2024-02-04T20:05:07.983Z,44.60
2024-02-04T20:07:39.312Z,68.00
2024-02-04T20:10:07.136Z,100.73
2024-02-04T20:12:34.616Z,126.10
2024-02-04T20:15:03.514Z,399.95
2024-02-04T20:17:30.987Z,121.18
2024-02-04T20:20:00.543Z,164.18
2024-02-04T20:22:28.190Z,260.63
2024-02-04T20:24:55.694Z,270.42
2024-02-04T20:27:23.225Z,163.82
2024-02-04T20:29:50.651Z,174.50
2024-02-04T20:32:19.263Z,166.80
2024-02-04T20:34:47.173Z,435.85
2024-02-04T20:37:14.572Z,191.02
2024-02-04T20:39:42.063Z,286.77
2024-02-04T20:45:03.026Z,28.73
2024-02-04T20:47:31.522Z,41.50
2024-02-04T20:49:59.708Z,57.28
2024-02-04T20:52:27.251Z,61.78
2024-02-04T20:54:55.529Z,55.35
2024-02-04T20:57:23.084Z,128.60
2024-02-04T20:59:50.474Z,59.22
2024-02-04T21:02:18.119Z,220.45
2024-02-04T21:04:45.541Z,703.13
2024-02-04T21:07:12.971Z,200.95
2024-02-04T21:09:40.528Z,370.15
2024-02-04T21:12:08.119Z,620.70
2024-02-04T21:14:35.529Z,240.68
2024-02-04T21:17:07.865Z,365.27
2024-02-04T21:19:35.535Z,316.48
2024-02-04T21:22:03.780Z,489.23
2024-02-04T21:24:31.342Z,409.98
2024-02-04T21:26:58.824Z,296.27
2024-02-04T21:29:26.237Z,294.15
2024-02-04T21:31:56.643Z,289.38
2024-02-04T21:34:24.473Z,330.63
2024-02-04T21:36:51.937Z,152.20
2024-02-04T21:39:20.002Z,140.82
2024-02-04T21:41:47.621Z,325.30
2024-02-04T21:44:15.121Z,232.18
2024-02-04T21:46:49.550Z,294.35
2024-02-04T21:49:20.020Z,137.38
2024-02-04T21:51:47.603Z,106.45
2024-02-04T21:54:15.068Z,142.63
2024-02-04T21:56:42.599Z,227.38
2024-02-04T21:59:09.972Z,250.48
2024-02-04T22:01:37.583Z,160.13
2024-02-04T22:04:05.129Z,176.77
2024-02-04T22:06:32.653Z,117.93
2024-02-04T22:09:00.631Z,45.85
2024-02-04T22:11:30.197Z,71.10
2024-02-04T22:13:58.201Z,428.75
2024-02-04T22:16:25.671Z,238.13
2024-02-04T22:18:53.139Z,114.57
2024-02-04T22:21:23.732Z,178.82
2024-02-04T22:23:52.744Z,87.97
2024-02-04T22:26:29.673Z,111.45
2024-02-04T22:28:59.653Z,361.08
2024-02-04T22:31:27.723Z,437.00
2024-02-04T22:34:09.754Z,296.52
2024-02-04T22:39:55.523Z,91.80
2024-02-04T22:42:54.437Z,243.60
2024-02-04T22:45:22.121Z,705.47
2024-02-04T22:48:02.769Z,158.35
2024-02-04T22:50:41.919Z,105.95
2024-02-04T22:53:12.112Z,109.33
2024-02-04T22:55:39.730Z,433.02
2024-02-04T22:58:07.142Z,62.65
2024-02-04T23:00:34.929Z,100.38
2024-02-04T23:03:02.898Z,96.40
2024-02-04T23:05:30.892Z,139.25
2024-02-04T23:07:59.929Z,193.40
2024-02-04T23:10:29.107Z,114.78
2024-02-04T23:12:58.723Z,283.17
2024-02-04T23:15:26.343Z,254.88
2024-02-04T23:17:53.957Z,249.10
2024-02-04T23:20:22.610Z,114.45
2024-02-04T23:22:51.203Z,93.50
2024-02-04T23:25:20.115Z,70.03
2024-02-04T23:27:49.666Z,124.97
2024-02-04T23:30:26.031Z,80.97
2024-02-04T23:32:53.487Z,42.53
2024-02-04T23:35:44.175Z,31.63
2024-02-04T23:38:42.951Z,67.18
2024-02-04T23:41:10.773Z,58.95
2024-02-04T23:43:50.288Z,29.80
2024-02-04T23:46:29.641Z,57.60
2024-02-04T23:48:57.073Z,28.30
2024-02-04T23:51:24.566Z,24.90
2024-02-04T23:53:51.987Z,35.97
2024-02-04T23:56:30.649Z,33.80
2024-02-04T23:58:58.091Z,18.05
